createdAt,value
2022-10-07T00:01:35.658Z,3.10
2022-10-07T00:04:13.640Z,2.65
2022-10-07T00:06:50.958Z,2.50
2022-10-07T00:11:45.803Z,3.22
2022-10-07T00:14:12.772Z,2.60
2022-10-07T00:16:43.972Z,3.00
2022-10-07T00:19:13.950Z,3.33
2022-10-07T00:26:25.021Z,3.05
2022-10-07T00:28:52.809Z,4.30
2022-10-07T00:31:29.160Z,3.75
2022-10-07T00:33:58.712Z,4.18
2022-10-07T00:36:43.234Z,5.63
2022-10-07T00:39:14.980Z,4.53
2022-10-07T00:41:55.593Z,4.45
2022-10-07T00:44:32.162Z,4.90
2022-10-07T00:47:30.713Z,5.97
2022-10-07T00:50:08.825Z,3.85
2022-10-07T00:53:05.477Z,3.72
2022-10-07T00:55:32.891Z,3.92
2022-10-07T00:58:09.359Z,3.75
2022-10-07T01:00:41.036Z,4.03
2022-10-07T01:03:08.575Z,3.38
2022-10-07T01:05:35.400Z,4.55
2022-10-07T01:08:03.603Z,4.97
2022-10-07T01:10:56.308Z,3.90
2022-10-07T01:13:42.134Z,4.57
2022-10-07T01:16:37.919Z,4.80
2022-10-07T01:19:26.299Z,4.18
2022-10-07T01:22:43.371Z,4.40
2022-10-07T01:25:32.167Z,4.57
2022-10-07T01:28:22.334Z,5.15
2022-10-07T01:30:58.911Z,5.07
2022-10-07T01:33:31.557Z,4.82
2022-10-07T01:36:08.859Z,4.35
2022-10-07T01:38:42.437Z,4.40
2022-10-07T01:41:17.344Z,3.80
2022-10-07T01:43:46.788Z,3.50
2022-10-07T01:46:25.779Z,4.70
2022-10-07T01:48:54.968Z,4.10
2022-10-07T01:51:30.361Z,4.43
2022-10-07T01:54:30.942Z,5.18
2022-10-07T01:57:29.622Z,5.45
2022-10-07T02:00:09.939Z,5.30
2022-10-07T02:03:26.005Z,4.30
2022-10-07T02:06:16.609Z,4.38
2022-10-07T02:08:50.637Z,4.28
2022-10-07T02:11:24.402Z,5.38
2022-10-07T02:14:20.488Z,4.50
2022-10-07T02:16:55.164Z,4.15
2022-10-07T02:19:31.023Z,5.28
2022-10-07T02:22:02.049Z,4.63
2022-10-07T02:24:34.434Z,4.20
2022-10-07T02:27:15.720Z,3.90
2022-10-07T02:29:49.772Z,4.25
2022-10-07T02:32:34.658Z,3.97
2022-10-07T02:35:18.772Z,4.50
2022-10-07T02:37:50.564Z,3.03
2022-10-07T02:40:18.099Z,3.55
2022-10-07T02:43:10.526Z,3.25
2022-10-07T02:46:16.873Z,4.03
2022-10-07T02:49:16.954Z,4.10
2022-10-07T02:51:59.790Z,4.43
2022-10-07T02:54:39.284Z,4.35
2022-10-07T02:57:09.595Z,3.70
2022-10-07T02:59:44.994Z,3.70
2022-10-07T03:02:47.867Z,3.92
2022-10-07T03:05:19.902Z,3.80
2022-10-07T03:08:08.089Z,3.85
2022-10-07T03:10:37.538Z,3.67
2022-10-07T03:13:13.841Z,3.22
2022-10-07T03:15:57.118Z,3.75
2022-10-07T03:18:32.359Z,4.13
2022-10-07T03:21:11.609Z,4.22
2022-10-07T03:23:38.591Z,6.35
2022-10-07T03:26:05.784Z,5.20
2022-10-07T03:28:37.736Z,8.30
2022-10-07T03:31:12.914Z,6.45
2022-10-07T03:33:54.121Z,5.00
2022-10-07T03:36:29.765Z,5.63
2022-10-07T03:39:02.830Z,6.18
2022-10-07T03:41:47.026Z,4.95
2022-10-07T03:44:26.411Z,5.03
2022-10-07T03:46:57.612Z,4.72
2022-10-07T03:49:27.546Z,4.15
2022-10-07T03:52:01.302Z,4.05
2022-10-07T03:54:33.211Z,5.45
2022-10-07T03:57:04.109Z,4.60
2022-10-07T03:59:33.440Z,4.53
2022-10-07T04:02:05.741Z,4.28
2022-10-07T04:04:34.073Z,4.10
2022-10-07T04:07:13.826Z,4.35
2022-10-07T04:09:45.924Z,4.13
2022-10-07T04:12:15.546Z,4.47
2022-10-07T04:14:45.698Z,4.55
2022-10-07T04:17:13.424Z,3.00
2022-10-07T04:19:42.011Z,5.03
2022-10-07T04:22:18.392Z,5.70
2022-10-07T04:25:06.751Z,5.38
2022-10-07T04:27:51.104Z,5.82
2022-10-07T04:30:31.136Z,5.00
2022-10-07T04:32:59.294Z,5.50
2022-10-07T04:35:28.396Z,5.65
2022-10-07T04:38:03.707Z,2.85
2022-10-07T04:40:32.030Z,3.45
2022-10-07T04:43:18.202Z,2.50
2022-10-07T04:45:50.524Z,3.00
2022-10-07T04:48:21.152Z,3.50
2022-10-07T04:50:53.893Z,3.63
2022-10-07T04:53:24.151Z,3.15
2022-10-07T04:55:52.140Z,3.20
2022-10-07T04:58:29.390Z,3.67
2022-10-07T05:01:00.093Z,2.95
2022-10-07T05:03:29.794Z,2.78
2022-10-07T05:06:05.886Z,4.70
2022-10-07T05:08:35.630Z,5.50
2022-10-07T05:11:03.932Z,4.63
2022-10-07T05:13:43.121Z,4.10
2022-10-07T05:16:12.044Z,3.22
2022-10-07T05:18:40.372Z,2.95
2022-10-07T05:21:11.283Z,3.65
2022-10-07T05:23:43.175Z,5.15
2022-10-07T05:26:16.188Z,5.50
2022-10-07T05:28:49.385Z,3.78
2022-10-07T05:31:22.104Z,4.18
2022-10-07T05:33:53.951Z,4.50
2022-10-07T05:36:24.562Z,5.00
2022-10-07T05:39:00.256Z,3.25
2022-10-07T05:41:46.070Z,3.47
2022-10-07T05:44:17.984Z,2.92
2022-10-07T05:46:46.974Z,3.20
2022-10-07T05:49:15.744Z,3.33
2022-10-07T05:51:42.907Z,3.20
2022-10-07T05:54:09.819Z,3.10
2022-10-07T05:56:41.195Z,3.28
2022-10-07T05:59:08.470Z,2.75
2022-10-07T06:01:37.589Z,2.75
2022-10-07T06:04:12.390Z,3.05
2022-10-07T06:06:42.011Z,4.13
2022-10-07T06:09:30.163Z,3.10
2022-10-07T06:12:17.632Z,2.70
2022-10-07T06:14:46.240Z,3.28
2022-10-07T06:17:13.242Z,3.15
2022-10-07T06:19:42.012Z,3.13
2022-10-07T06:22:09.454Z,3.30
2022-10-07T06:24:38.123Z,3.15
2022-10-07T06:27:05.493Z,3.60
2022-10-07T06:29:32.417Z,3.10
2022-10-07T06:32:00.367Z,3.17
2022-10-07T06:34:27.524Z,2.72
2022-10-07T06:36:55.918Z,3.40
2022-10-07T06:39:24.100Z,3.03
2022-10-07T06:41:54.478Z,3.30
2022-10-07T06:44:42.943Z,3.33
2022-10-07T06:47:12.397Z,3.70
2022-10-07T06:49:43.951Z,2.97
2022-10-07T06:52:12.591Z,3.25
2022-10-07T06:54:40.970Z,3.08
2022-10-07T06:57:26.719Z,2.95
2022-10-07T06:59:55.779Z,3.67
2022-10-07T07:02:25.590Z,3.33
2022-10-07T07:04:57.664Z,3.10
2022-10-07T07:07:25.887Z,3.78
2022-10-07T07:09:52.774Z,3.38
2022-10-07T07:12:22.641Z,3.95
2022-10-07T07:14:50.425Z,4.03
2022-10-07T07:17:20.291Z,3.72
2022-10-07T07:19:47.408Z,3.15
2022-10-07T07:22:14.453Z,3.70
2022-10-07T07:24:43.090Z,3.67
2022-10-07T07:27:09.983Z,4.70
2022-10-07T07:29:37.293Z,4.07
2022-10-07T07:32:04.477Z,4.20
2022-10-07T07:34:36.266Z,3.88
2022-10-07T07:37:04.053Z,4.35
2022-10-07T07:39:37.996Z,3.80
2022-10-07T07:42:09.486Z,4.05
2022-10-07T07:44:37.691Z,4.18
2022-10-07T07:47:08.781Z,4.22
2022-10-07T07:49:36.283Z,5.03
2022-10-07T07:52:05.385Z,4.20
2022-10-07T07:54:39.597Z,4.00
2022-10-07T07:57:06.731Z,4.05
2022-10-07T07:59:37.522Z,5.03
2022-10-07T08:02:07.936Z,4.65
2022-10-07T08:04:37.130Z,4.93
2022-10-07T08:07:04.741Z,5.70
2022-10-07T08:09:32.899Z,5.05
2022-10-07T08:12:00.531Z,5.50
2022-10-07T08:14:28.079Z,5.10
2022-10-07T08:16:57.770Z,4.45
2022-10-07T08:19:26.393Z,4.57
2022-10-07T08:21:54.860Z,5.05
2022-10-07T08:24:26.163Z,4.07
2022-10-07T08:26:53.913Z,4.38
2022-10-07T08:29:22.961Z,3.90
2022-10-07T08:31:52.036Z,4.55
2022-10-07T08:34:21.731Z,3.78
2022-10-07T08:36:53.556Z,4.93
2022-10-07T08:39:21.238Z,4.22
2022-10-07T08:42:13.842Z,4.30
2022-10-07T08:44:50.167Z,4.47
2022-10-07T08:47:39.713Z,3.85
2022-10-07T08:50:45.428Z,3.80
2022-10-07T08:53:21.776Z,4.65
2022-10-07T08:56:08.499Z,4.07
2022-10-07T08:59:13.132Z,3.28
2022-10-07T09:02:03.735Z,3.42
2022-10-07T09:05:34.145Z,3.58
2022-10-07T09:08:17.481Z,3.30
2022-10-07T09:10:53.411Z,2.80
2022-10-07T09:13:33.899Z,3.20
2022-10-07T09:16:20.989Z,3.33
2022-10-07T09:18:57.614Z,2.40
2022-10-07T09:21:44.765Z,2.42
2022-10-07T09:24:24.603Z,2.85
2022-10-07T09:26:56.584Z,2.38
2022-10-07T09:29:29.973Z,2.40
2022-10-07T09:32:02.895Z,2.42
2022-10-07T09:34:32.897Z,2.33
2022-10-07T09:37:23.846Z,2.45
2022-10-07T09:39:55.618Z,2.55
2022-10-07T09:42:43.266Z,3.45
2022-10-07T09:45:26.693Z,2.45
2022-10-07T09:48:02.739Z,1.88
2022-10-07T09:50:39.648Z,2.47
2022-10-07T09:55:54.704Z,2.50
2022-10-07T09:58:32.309Z,3.03
2022-10-07T10:01:11.136Z,2.60
2022-10-07T10:03:38.544Z,2.03
2022-10-07T10:06:09.605Z,1.95
2022-10-07T10:08:44.661Z,2.28
2022-10-07T10:13:51.161Z,2.97
2022-10-07T10:16:41.543Z,2.40
2022-10-07T10:19:27.624Z,2.33
2022-10-07T10:22:01.456Z,1.75
2022-10-07T10:24:50.147Z,1.80
2022-10-07T10:27:35.411Z,2.38
2022-10-07T10:30:09.241Z,2.47
2022-10-07T10:37:01.642Z,3.63
2022-10-07T10:40:02.864Z,2.13
2022-10-07T10:43:04.034Z,1.92
2022-10-07T10:45:41.791Z,1.65
2022-10-07T10:48:42.206Z,3.33
2022-10-07T10:51:31.371Z,2.40
2022-10-07T10:54:52.088Z,2.35
2022-10-07T10:58:15.212Z,2.50
2022-10-07T11:01:13.362Z,2.13
2022-10-07T11:04:07.997Z,1.75
2022-10-07T11:06:46.159Z,2.88
2022-10-07T11:09:52.050Z,2.05
2022-10-07T11:12:39.505Z,3.08
2022-10-07T11:15:37.093Z,2.47
2022-10-07T11:18:18.259Z,2.13
2022-10-07T11:20:48.249Z,1.65
2022-10-07T11:23:55.246Z,1.60
2022-10-07T11:26:50.899Z,1.60
2022-10-07T11:29:49.362Z,1.92
2022-10-07T11:32:45.466Z,2.28
2022-10-07T11:35:39.600Z,1.52
2022-10-07T11:38:13.974Z,1.38
2022-10-07T11:41:00.264Z,1.83
2022-10-07T11:43:56.887Z,1.67
2022-10-07T11:46:43.290Z,1.52
2022-10-07T11:49:35.660Z,1.48
2022-10-07T11:55:27.850Z,1.67
2022-10-07T11:58:02.141Z,1.90
2022-10-07T12:00:40.365Z,3.60
2022-10-07T12:03:19.667Z,1.77
2022-10-07T12:05:49.814Z,2.30
2022-10-07T12:08:34.630Z,1.92
2022-10-07T12:11:37.983Z,1.27
2022-10-07T12:14:47.006Z,1.93
2022-10-07T12:17:42.200Z,1.80
2022-10-07T12:20:51.241Z,2.08
2022-10-07T12:23:28.706Z,1.63
2022-10-07T12:26:04.566Z,1.65
2022-10-07T12:28:41.800Z,2.08
2022-10-07T12:32:25.715Z,1.98
2022-10-07T12:35:00.886Z,1.52
2022-10-07T12:37:46.286Z,1.70
2022-10-07T12:40:40.641Z,1.85
2022-10-07T12:43:31.114Z,2.42
2022-10-07T12:45:59.967Z,1.75
2022-10-07T12:48:38.710Z,2.17
2022-10-07T12:51:18.339Z,1.65
2022-10-07T12:55:30.083Z,2.08
2022-10-07T12:59:00.660Z,1.50
2022-10-07T13:02:01.555Z,1.73
2022-10-07T13:04:38.456Z,2.15
2022-10-07T13:07:40.768Z,1.90
2022-10-07T13:15:47.713Z,1.77
2022-10-07T13:18:24.788Z,1.88
2022-10-07T13:21:30.418Z,2.30
2022-10-07T13:23:57.309Z,1.70
2022-10-07T13:26:28.044Z,1.80
2022-10-07T13:29:56.235Z,2.20
2022-10-07T13:32:30.114Z,1.70
2022-10-07T13:35:36.253Z,2.00
2022-10-07T13:45:45.483Z,1.45
2022-10-07T13:48:19.988Z,2.50
2022-10-07T13:50:50.475Z,1.63
2022-10-07T13:53:31.728Z,2.00
2022-10-07T13:56:42.303Z,2.15
2022-10-07T13:59:17.988Z,1.90
2022-10-07T14:01:49.251Z,2.28
2022-10-07T14:04:23.311Z,1.83
2022-10-07T14:07:17.537Z,1.80
2022-10-07T14:10:00.632Z,1.80
2022-10-07T14:12:41.854Z,2.10
2022-10-07T14:15:30.229Z,1.95
2022-10-07T14:18:06.709Z,1.90
2022-10-07T14:20:45.229Z,1.92
2022-10-07T14:23:31.253Z,2.20
2022-10-07T14:26:03.752Z,1.67
2022-10-07T14:28:33.989Z,1.50
2022-10-07T14:31:25.190Z,1.80
2022-10-07T14:34:39.140Z,1.38
2022-10-07T14:37:28.414Z,2.58
2022-10-07T14:43:34.583Z,1.73
2022-10-07T14:46:25.345Z,1.60
2022-10-07T14:48:53.698Z,2.30
2022-10-07T14:51:31.900Z,1.88
2022-10-07T14:54:06.527Z,1.98
2022-10-07T14:56:36.742Z,1.67
2022-10-07T14:59:03.588Z,1.90
2022-10-07T15:01:30.488Z,2.13
2022-10-07T15:03:58.192Z,2.00
2022-10-07T15:06:25.396Z,1.65
2022-10-07T15:08:52.473Z,1.90
2022-10-07T15:11:21.604Z,1.92
2022-10-07T15:13:49.930Z,2.28
2022-10-07T15:16:23.358Z,1.95
2022-10-07T15:18:52.962Z,1.60
2022-10-07T15:21:22.039Z,2.42
2022-10-07T15:23:53.831Z,1.90
2022-10-07T15:26:24.378Z,2.63
2022-10-07T15:28:55.503Z,2.08
2022-10-07T15:31:34.619Z,2.03
2022-10-07T15:34:01.960Z,1.58
2022-10-07T15:36:30.000Z,1.65
2022-10-07T15:39:02.202Z,1.70
2022-10-07T15:41:40.034Z,2.53
2022-10-07T15:44:29.931Z,2.03
2022-10-07T15:46:57.474Z,2.30
2022-10-07T15:54:21.191Z,2.60
2022-10-07T15:56:50.233Z,1.98
2022-10-07T15:59:18.100Z,1.77
2022-10-07T16:01:46.837Z,2.13
2022-10-07T16:04:15.202Z,1.88
2022-10-07T16:06:59.588Z,1.83
2022-10-07T16:10:26.667Z,1.67
2022-10-07T16:12:53.835Z,2.47
2022-10-07T16:15:21.450Z,1.60
2022-10-07T16:17:48.690Z,2.78
2022-10-07T16:20:18.547Z,2.08
2022-10-07T16:22:46.264Z,1.90
2022-10-07T16:25:14.631Z,2.00
2022-10-07T16:28:03.226Z,1.30
2022-10-07T16:30:50.203Z,1.48
2022-10-07T16:33:19.652Z,1.50
2022-10-07T16:38:53.877Z,1.98
2022-10-07T16:41:21.486Z,2.00
2022-10-07T16:43:48.743Z,2.05
2022-10-07T16:47:01.204Z,2.25
2022-10-07T16:49:30.468Z,2.53
2022-10-07T16:51:58.733Z,1.90
2022-10-07T16:54:25.726Z,1.90
2022-10-07T16:56:53.100Z,2.38
2022-10-07T16:59:24.234Z,2.22
2022-10-07T17:01:55.831Z,1.70
2022-10-07T17:04:24.373Z,2.78
2022-10-07T17:06:51.463Z,2.00
2022-10-07T17:09:18.653Z,2.80
2022-10-07T17:15:06.596Z,2.78
2022-10-07T17:17:33.683Z,2.63
2022-10-07T17:20:00.630Z,2.60
2022-10-07T17:22:27.500Z,2.70
2022-10-07T17:24:54.654Z,3.72
2022-10-07T17:27:21.524Z,3.00
2022-10-07T17:29:48.353Z,3.17
2022-10-07T17:32:41.612Z,2.83
2022-10-07T17:35:08.866Z,3.10
2022-10-07T17:37:35.728Z,2.53
2022-10-07T17:40:02.678Z,2.50
2022-10-07T17:48:21.822Z,2.40
2022-10-07T17:50:48.805Z,2.15
2022-10-07T17:53:15.643Z,2.65
2022-10-07T17:57:07.551Z,2.40
2022-10-07T18:00:01.476Z,1.98
2022-10-07T18:02:39.798Z,2.10
2022-10-07T18:05:35.952Z,2.35
2022-10-07T18:13:59.994Z,2.88
2022-10-07T18:16:27.093Z,3.28
2022-10-07T18:19:22.496Z,2.88
2022-10-07T18:21:49.411Z,3.17
2022-10-07T18:24:39.527Z,3.15
2022-10-07T18:33:29.806Z,2.80
2022-10-07T18:36:06.061Z,2.80
2022-10-07T18:38:40.631Z,2.27
2022-10-07T18:42:09.595Z,3.03
2022-10-07T18:45:25.000Z,1.60
2022-10-07T18:48:03.215Z,2.70
2022-10-07T18:54:46.836Z,2.00
2022-10-07T18:57:14.542Z,2.60
2022-10-07T19:04:50.916Z,1.77
2022-10-07T19:15:49.528Z,2.58
2022-10-07T20:15:41.285Z,2.28
2022-10-07T20:19:27.826Z,2.40
2022-10-07T20:22:22.864Z,2.70
2022-10-07T20:29:10.937Z,3.08
2022-10-07T20:56:54.026Z,2.45
2022-10-07T20:59:58.576Z,3.47
2022-10-07T21:02:35.022Z,2.90
2022-10-07T21:11:03.721Z,4.15
2022-10-07T21:15:03.037Z,3.45
2022-10-07T21:18:11.703Z,3.08
2022-10-07T21:21:23.845Z,3.00
2022-10-07T21:38:23.505Z,3.83
2022-10-07T21:41:08.491Z,3.33
2022-10-07T21:44:22.862Z,4.85
2022-10-07T21:47:21.772Z,6.35
2022-10-07T21:51:27.456Z,5.95
2022-10-07T22:05:02.599Z,7.45
2022-10-07T22:08:38.600Z,5.80
2022-10-07T22:24:09.325Z,3.42
2022-10-07T22:35:56.873Z,3.75
2022-10-07T23:10:34.721Z,8.05
2022-10-07T23:27:08.903Z,12.60
2022-10-07T23:42:48.671Z,3.47
2022-10-07T23:50:11.342Z,3.45
